createdAt,value
2023-05-25T00:01:30.481Z,1.80
2023-05-25T00:04:00.611Z,1.90
2023-05-25T00:06:29.992Z,2.00
2023-05-25T00:08:58.072Z,1.80
2023-05-25T00:11:27.671Z,1.87
2023-05-25T00:13:55.738Z,2.30
2023-05-25T00:16:23.551Z,2.23
2023-05-25T00:18:53.177Z,1.87
2023-05-25T00:21:21.120Z,2.40
2023-05-25T00:23:50.376Z,2.37
2023-05-25T00:26:18.296Z,2.50
2023-05-25T00:28:46.099Z,2.13
2023-05-25T00:31:14.057Z,2.43
2023-05-25T00:33:42.051Z,2.10
2023-05-25T00:36:10.060Z,1.90
2023-05-25T00:38:37.862Z,2.23
2023-05-25T00:41:07.108Z,1.90
2023-05-25T00:43:34.945Z,2.30
2023-05-25T00:46:04.481Z,2.20
2023-05-25T00:48:32.951Z,2.40
2023-05-25T00:51:01.119Z,2.30
2023-05-25T00:53:28.892Z,2.40
2023-05-25T00:56:03.649Z,2.17
2023-05-25T00:58:35.105Z,2.10
2023-05-25T01:01:06.366Z,2.10
2023-05-25T01:03:38.743Z,2.17
2023-05-25T01:06:10.862Z,2.50
2023-05-25T01:08:41.761Z,2.50
2023-05-25T01:11:12.871Z,2.70
2023-05-25T01:13:43.591Z,2.30
2023-05-25T01:16:11.447Z,2.20
2023-05-25T01:18:41.885Z,3.40
2023-05-25T01:21:18.054Z,2.90
2023-05-25T01:23:52.088Z,2.93
2023-05-25T01:26:24.774Z,2.80
2023-05-25T01:28:54.011Z,2.87
2023-05-25T01:31:23.868Z,2.77
2023-05-25T01:33:52.865Z,3.00
2023-05-25T01:36:22.101Z,2.70
2023-05-25T01:38:50.184Z,2.80
2023-05-25T01:41:17.953Z,3.00
2023-05-25T01:43:45.956Z,2.67
2023-05-25T01:46:20.997Z,2.53
2023-05-25T01:48:56.054Z,2.67
2023-05-25T01:51:33.475Z,2.90
2023-05-25T01:54:04.326Z,3.17
2023-05-25T01:56:33.548Z,2.70
2023-05-25T01:59:03.635Z,3.00
2023-05-25T02:01:33.168Z,3.10
2023-05-25T02:04:02.069Z,2.67
2023-05-25T02:06:31.918Z,2.80
2023-05-25T02:08:59.780Z,3.10
2023-05-25T02:11:27.851Z,2.33
2023-05-25T02:13:55.640Z,2.67
2023-05-25T02:16:23.512Z,2.47
2023-05-25T02:18:52.003Z,2.53
2023-05-25T02:21:19.823Z,2.60
2023-05-25T02:23:49.353Z,2.87
2023-05-25T02:26:17.144Z,2.80
2023-05-25T02:28:44.924Z,2.57
2023-05-25T02:31:12.786Z,2.40
2023-05-25T02:33:40.636Z,2.50
2023-05-25T02:36:09.016Z,3.00
2023-05-25T02:38:36.797Z,2.83
2023-05-25T02:41:06.068Z,2.90
2023-05-25T02:43:33.864Z,2.67
2023-05-25T02:46:01.686Z,2.90
2023-05-25T02:48:29.526Z,2.90
2023-05-25T02:50:57.497Z,2.80
2023-05-25T02:53:25.430Z,3.20
2023-05-25T02:55:53.245Z,3.50
2023-05-25T02:58:22.472Z,2.77
2023-05-25T03:00:51.094Z,3.20
2023-05-25T03:03:19.047Z,3.00
2023-05-25T03:05:47.330Z,3.07
2023-05-25T03:08:15.097Z,2.93
2023-05-25T03:10:42.863Z,3.07
2023-05-25T03:13:10.656Z,2.80
2023-05-25T03:15:40.199Z,3.00
2023-05-25T03:18:08.014Z,2.77
2023-05-25T03:20:35.979Z,2.60
2023-05-25T03:23:04.035Z,3.20
2023-05-25T03:25:31.853Z,3.40
2023-05-25T03:27:59.614Z,2.83
2023-05-25T03:30:27.380Z,3.00
2023-05-25T03:32:56.574Z,2.83
2023-05-25T03:35:24.358Z,3.13
2023-05-25T03:37:52.118Z,3.13
2023-05-25T03:40:20.009Z,2.93
2023-05-25T03:42:47.782Z,3.13
2023-05-25T03:45:15.654Z,3.37
2023-05-25T03:47:45.532Z,3.47
2023-05-25T03:50:14.835Z,2.93
2023-05-25T03:52:42.571Z,3.10
2023-05-25T03:55:11.305Z,3.83
2023-05-25T03:57:39.039Z,3.57
2023-05-25T04:00:09.598Z,3.53
2023-05-25T04:02:37.938Z,3.53
2023-05-25T04:05:07.043Z,2.97
2023-05-25T04:07:37.102Z,3.57
2023-05-25T04:10:05.211Z,3.37
2023-05-25T04:12:34.597Z,3.20
2023-05-25T04:15:03.901Z,3.27
2023-05-25T04:17:31.655Z,3.43
2023-05-25T04:19:59.509Z,3.67
2023-05-25T04:22:27.467Z,3.50
2023-05-25T04:24:56.605Z,3.17
2023-05-25T04:27:26.406Z,3.57
2023-05-25T04:29:54.328Z,3.13
2023-05-25T04:32:22.127Z,3.40
2023-05-25T04:34:49.905Z,4.10
2023-05-25T04:37:17.953Z,3.27
2023-05-25T04:39:45.999Z,3.70
2023-05-25T04:42:17.179Z,3.37
2023-05-25T04:44:45.148Z,3.40
2023-05-25T04:47:13.655Z,3.93
2023-05-25T04:49:41.748Z,4.07
2023-05-25T04:52:09.772Z,3.97
2023-05-25T04:54:38.210Z,3.50
2023-05-25T04:57:06.538Z,3.80
2023-05-25T04:59:35.760Z,4.70
2023-05-25T05:02:03.589Z,4.17
2023-05-25T05:04:31.439Z,4.23
2023-05-25T05:06:59.873Z,4.37
2023-05-25T05:09:27.853Z,3.97
2023-05-25T05:11:55.794Z,3.77
2023-05-25T05:14:23.628Z,4.30
2023-05-25T05:16:52.836Z,3.97
2023-05-25T05:19:20.687Z,4.23
2023-05-25T05:21:48.510Z,4.10
2023-05-25T05:24:16.471Z,4.40
2023-05-25T05:26:57.812Z,4.50
2023-05-25T05:29:28.693Z,4.30
2023-05-25T05:31:57.990Z,4.53
2023-05-25T05:34:26.370Z,5.03
2023-05-25T05:36:58.081Z,4.70
2023-05-25T05:39:27.203Z,4.77
2023-05-25T05:41:55.302Z,4.33
2023-05-25T05:44:25.929Z,4.63
2023-05-25T05:47:00.846Z,4.37
2023-05-25T05:49:29.992Z,4.27
2023-05-25T05:51:57.927Z,4.60
2023-05-25T05:54:27.857Z,3.97
2023-05-25T05:56:56.071Z,3.90
2023-05-25T05:59:24.159Z,4.03
2023-05-25T06:01:52.013Z,3.83
2023-05-25T06:04:25.336Z,3.70
2023-05-25T06:06:53.151Z,3.83
2023-05-25T06:09:20.962Z,4.33
2023-05-25T06:11:48.771Z,4.20
2023-05-25T06:14:16.611Z,4.10
2023-05-25T06:16:44.790Z,3.47
2023-05-25T06:19:14.517Z,4.17
2023-05-25T06:21:43.737Z,3.80
2023-05-25T06:24:11.823Z,4.40
2023-05-25T06:26:39.633Z,3.93
2023-05-25T06:29:07.463Z,4.10
2023-05-25T06:31:35.331Z,3.77
2023-05-25T06:34:03.197Z,4.67
2023-05-25T06:36:32.160Z,3.63
2023-05-25T06:39:01.652Z,3.97
2023-05-25T06:41:29.877Z,4.00
2023-05-25T06:43:57.765Z,3.77
2023-05-25T06:46:25.629Z,4.23
2023-05-25T06:48:53.467Z,3.90
2023-05-25T06:51:21.530Z,4.07
2023-05-25T06:53:49.295Z,3.70
2023-05-25T06:56:18.372Z,3.50
2023-05-25T06:58:46.255Z,3.30
2023-05-25T07:01:14.219Z,2.90
2023-05-25T07:03:42.001Z,3.20
2023-05-25T07:06:12.127Z,2.67
2023-05-25T07:08:39.889Z,3.00
2023-05-25T07:11:10.544Z,2.87
2023-05-25T07:13:39.794Z,2.73
2023-05-25T07:16:07.950Z,2.57
2023-05-25T07:18:35.814Z,2.90
2023-05-25T07:21:03.632Z,2.70
2023-05-25T07:23:31.426Z,2.80
2023-05-25T07:25:59.332Z,2.53
2023-05-25T07:28:27.254Z,2.60
2023-05-25T07:30:56.540Z,2.40
2023-05-25T07:33:24.384Z,3.37
2023-05-25T07:35:52.404Z,2.30
2023-05-25T07:38:20.460Z,2.80
2023-05-25T07:40:49.224Z,3.27
2023-05-25T07:43:16.982Z,3.00
2023-05-25T07:45:45.043Z,2.67
2023-05-25T07:48:14.495Z,2.47
2023-05-25T07:50:42.322Z,3.20
2023-05-25T07:53:10.162Z,2.13
2023-05-25T07:55:37.940Z,2.97
2023-05-25T07:58:07.440Z,3.20
2023-05-25T08:00:35.595Z,3.17
2023-05-25T08:03:03.644Z,3.40
2023-05-25T08:05:32.849Z,3.40
2023-05-25T08:08:00.668Z,3.00
2023-05-25T08:10:32.268Z,2.57
2023-05-25T08:13:00.453Z,3.20
2023-05-25T08:15:29.337Z,2.57
2023-05-25T08:17:57.483Z,2.73
2023-05-25T08:20:25.961Z,3.10
2023-05-25T08:22:55.248Z,2.27
2023-05-25T08:25:23.204Z,2.40
2023-05-25T08:27:50.947Z,2.33
2023-05-25T08:30:18.826Z,2.40
2023-05-25T08:32:46.660Z,2.40
2023-05-25T08:35:15.017Z,2.60
2023-05-25T08:37:43.436Z,2.53
2023-05-25T08:40:15.821Z,1.77
2023-05-25T08:42:44.532Z,2.10
2023-05-25T08:45:22.580Z,2.10
2023-05-25T08:48:01.144Z,1.83
2023-05-25T08:50:30.981Z,1.67
2023-05-25T08:53:03.730Z,2.00
2023-05-25T08:55:36.425Z,2.20
2023-05-25T08:58:11.189Z,2.10
2023-05-25T09:00:45.813Z,2.10
2023-05-25T09:03:18.101Z,1.80
2023-05-25T09:05:46.995Z,1.73
2023-05-25T09:08:15.258Z,1.77
2023-05-25T09:10:44.691Z,1.90
2023-05-25T09:13:21.797Z,1.80
2023-05-25T09:15:52.021Z,2.30
2023-05-25T09:18:19.971Z,1.80
2023-05-25T09:20:48.122Z,1.80
2023-05-25T09:23:16.657Z,1.57
2023-05-25T09:25:47.251Z,2.20
2023-05-25T09:28:25.702Z,1.97
2023-05-25T09:30:54.773Z,2.00
2023-05-25T09:33:22.543Z,1.63
2023-05-25T09:35:51.509Z,2.10
2023-05-25T09:38:19.797Z,1.90
2023-05-25T09:40:49.297Z,2.00
2023-05-25T09:43:28.418Z,1.80
2023-05-25T09:46:05.480Z,2.30
2023-05-25T09:48:34.453Z,2.17
2023-05-25T09:51:02.649Z,2.10
2023-05-25T09:53:30.620Z,2.03
2023-05-25T09:56:03.193Z,1.77
2023-05-25T09:58:31.934Z,2.00
2023-05-25T10:00:59.837Z,1.80
2023-05-25T10:03:27.847Z,2.00
2023-05-25T10:05:56.289Z,2.17
2023-05-25T10:08:28.624Z,1.80
2023-05-25T10:10:57.032Z,2.07
2023-05-25T10:13:28.570Z,1.63
2023-05-25T10:15:57.483Z,1.90
2023-05-25T10:18:27.840Z,1.70
2023-05-25T10:21:04.403Z,1.60
2023-05-25T10:23:40.263Z,2.00
2023-05-25T10:26:09.803Z,1.43
2023-05-25T10:28:41.012Z,1.80
2023-05-25T10:31:10.800Z,1.77
2023-05-25T10:33:38.652Z,1.77
2023-05-25T10:36:11.250Z,2.47
2023-05-25T10:38:41.094Z,2.07
2023-05-25T10:41:11.262Z,1.80
2023-05-25T10:43:41.117Z,2.00
2023-05-25T10:46:09.605Z,1.97
2023-05-25T10:48:38.461Z,2.10
2023-05-25T10:51:08.859Z,2.13
2023-05-25T10:53:37.878Z,1.53
2023-05-25T10:56:07.419Z,1.90
2023-05-25T10:58:35.500Z,1.77
2023-05-25T11:01:08.614Z,1.97
2023-05-25T11:03:57.594Z,2.00
2023-05-25T11:07:04.094Z,1.73
2023-05-25T11:09:33.742Z,1.70
2023-05-25T11:12:06.610Z,1.60
2023-05-25T11:14:37.783Z,2.20
2023-05-25T11:17:11.204Z,2.07
2023-05-25T11:19:51.420Z,1.87
2023-05-25T11:22:21.497Z,2.47
2023-05-25T11:24:49.690Z,2.50
2023-05-25T11:27:23.521Z,2.40
2023-05-25T11:29:52.078Z,2.40
2023-05-25T11:32:22.719Z,2.30
2023-05-25T11:34:52.986Z,2.30
2023-05-25T11:37:22.192Z,2.33
2023-05-25T11:39:51.632Z,2.53
2023-05-25T11:42:21.978Z,2.03
2023-05-25T11:44:50.031Z,2.57
2023-05-25T11:47:23.441Z,2.40
2023-05-25T11:49:52.846Z,2.87
2023-05-25T11:52:22.255Z,3.00
2023-05-25T11:54:50.158Z,2.97
2023-05-25T11:57:19.227Z,3.00
2023-05-25T11:59:51.157Z,2.63
2023-05-25T12:02:19.288Z,2.80
2023-05-25T12:04:56.251Z,2.70
2023-05-25T12:07:24.805Z,2.23
2023-05-25T12:09:52.830Z,2.22
2023-05-25T12:12:21.349Z,1.90
2023-05-25T12:14:49.766Z,1.83
2023-05-25T12:17:18.416Z,2.10
2023-05-25T12:20:03.771Z,3.03
2023-05-25T12:22:37.166Z,2.20
2023-05-25T12:25:07.182Z,2.10
2023-05-25T12:27:35.817Z,2.47
2023-05-25T12:30:04.413Z,2.60
2023-05-25T12:32:32.243Z,2.30
2023-05-25T12:35:05.768Z,2.37
2023-05-25T12:37:34.513Z,1.93
2023-05-25T12:40:02.368Z,2.20
2023-05-25T12:42:32.241Z,2.63
2023-05-25T12:45:01.705Z,2.03
2023-05-25T12:47:30.419Z,2.10
2023-05-25T12:50:16.401Z,1.87
2023-05-25T12:52:46.516Z,1.53
2023-05-25T12:55:21.460Z,1.40
2023-05-25T12:57:52.496Z,1.70
2023-05-25T13:00:22.087Z,1.73
2023-05-25T13:02:50.655Z,1.60
2023-05-25T13:05:21.567Z,1.83
2023-05-25T13:07:49.777Z,1.50
2023-05-25T13:10:18.519Z,2.10
2023-05-25T13:12:46.767Z,1.73
2023-05-25T13:15:16.218Z,1.50
2023-05-25T13:17:44.764Z,1.87
2023-05-25T13:20:16.503Z,1.43
2023-05-25T13:22:47.242Z,1.83
2023-05-25T13:25:15.608Z,1.80
2023-05-25T13:27:45.650Z,1.90
2023-05-25T13:30:14.284Z,2.00
2023-05-25T13:32:43.349Z,1.53
2023-05-25T13:35:17.396Z,1.67
2023-05-25T13:37:46.629Z,1.77
2023-05-25T13:40:14.570Z,2.28
2023-05-25T13:42:42.639Z,2.40
2023-05-25T13:45:11.486Z,1.70
2023-05-25T13:47:39.614Z,1.80
2023-05-25T13:50:08.295Z,2.27
2023-05-25T13:52:37.097Z,1.80
2023-05-25T13:55:07.416Z,1.52
2023-05-25T13:57:35.193Z,2.08
2023-05-25T14:00:02.992Z,2.30
2023-05-25T14:02:32.126Z,2.05
2023-05-25T14:05:04.994Z,2.05
2023-05-25T14:07:32.960Z,2.23
2023-05-25T14:10:00.876Z,2.20
2023-05-25T14:12:30.023Z,2.00
2023-05-25T14:14:57.834Z,2.35
2023-05-25T14:17:25.879Z,1.97
2023-05-25T14:19:53.846Z,2.90
2023-05-25T14:22:21.677Z,2.40
2023-05-25T14:24:49.500Z,2.43
2023-05-25T14:27:21.050Z,2.37
2023-05-25T14:29:50.964Z,2.00
2023-05-25T14:32:19.720Z,2.17
2023-05-25T14:34:47.519Z,2.47
2023-05-25T14:37:15.335Z,2.00
2023-05-25T14:39:43.167Z,2.03
2023-05-25T14:42:10.928Z,2.08
2023-05-25T14:44:38.693Z,2.43
2023-05-25T14:47:08.076Z,2.00
2023-05-25T14:49:35.966Z,2.37
2023-05-25T14:52:03.990Z,2.30
2023-05-25T14:54:31.775Z,2.60
2023-05-25T14:56:59.527Z,2.30
2023-05-25T14:59:27.321Z,2.00
2023-05-25T15:01:55.147Z,2.50
2023-05-25T15:04:26.429Z,2.30
2023-05-25T15:06:54.369Z,2.30
2023-05-25T15:09:22.163Z,2.07
2023-05-25T15:11:49.958Z,2.70
2023-05-25T15:14:17.781Z,2.20
2023-05-25T15:16:45.934Z,2.30
2023-05-25T15:19:16.030Z,2.60
2023-05-25T15:21:46.838Z,2.65
2023-05-25T15:24:16.716Z,2.40
2023-05-25T15:26:44.594Z,2.50
2023-05-25T15:29:12.348Z,2.65
2023-05-25T15:31:40.405Z,2.22
2023-05-25T15:34:09.130Z,2.50
2023-05-25T15:36:36.995Z,2.47
2023-05-25T15:39:09.083Z,2.67
2023-05-25T15:41:37.238Z,2.83
2023-05-25T15:44:08.281Z,2.53
2023-05-25T15:46:36.368Z,2.78
2023-05-25T15:49:10.723Z,2.57
2023-05-25T15:51:43.851Z,2.73
2023-05-25T15:54:14.676Z,2.80
2023-05-25T15:56:42.968Z,2.73
2023-05-25T15:59:12.287Z,2.55
2023-05-25T16:01:40.651Z,3.00
2023-05-25T16:04:08.752Z,2.80
2023-05-25T16:06:38.524Z,2.45
2023-05-25T16:09:06.404Z,3.03
2023-05-25T16:11:35.607Z,2.83
2023-05-25T16:14:03.499Z,3.35
2023-05-25T16:16:31.639Z,2.60
2023-05-25T16:18:59.632Z,2.33
2023-05-25T16:21:27.766Z,2.83
2023-05-25T16:23:55.632Z,2.92
2023-05-25T16:26:23.840Z,2.70
2023-05-25T16:28:53.095Z,2.67
2023-05-25T16:31:20.912Z,2.83
2023-05-25T16:33:48.719Z,2.63
2023-05-25T16:36:17.148Z,3.13
2023-05-25T16:38:45.844Z,3.20
2023-05-25T16:41:13.893Z,2.83
2023-05-25T16:43:41.710Z,2.70
2023-05-25T16:46:11.583Z,3.07
2023-05-25T16:48:39.494Z,3.30
2023-05-25T16:51:14.924Z,2.70
2023-05-25T16:53:43.614Z,2.73
2023-05-25T16:56:11.714Z,3.00
2023-05-25T16:58:39.630Z,2.47
2023-05-25T17:01:07.663Z,2.90
2023-05-25T17:03:36.960Z,3.17
2023-05-25T17:06:05.045Z,2.83
2023-05-25T17:08:33.515Z,3.15
2023-05-25T17:11:01.356Z,2.40
2023-05-25T17:13:29.241Z,3.05
2023-05-25T17:15:57.052Z,2.57
2023-05-25T17:18:24.934Z,3.13
2023-05-25T17:20:55.168Z,2.47
2023-05-25T17:23:23.044Z,3.10
2023-05-25T17:25:50.929Z,2.70
2023-05-25T17:28:18.741Z,3.00
2023-05-25T17:30:48.337Z,2.90
2023-05-25T17:33:16.493Z,3.85
2023-05-25T17:35:44.484Z,2.92
2023-05-25T17:38:13.801Z,3.38
2023-05-25T17:40:41.588Z,2.60
2023-05-25T17:43:09.338Z,3.03
2023-05-25T17:45:37.177Z,2.58
2023-05-25T17:48:05.240Z,2.67
2023-05-25T17:50:33.013Z,2.90
2023-05-25T17:53:00.754Z,2.55
2023-05-25T17:55:29.869Z,2.75
2023-05-25T17:57:57.630Z,2.90
2023-05-25T18:00:26.003Z,3.05
2023-05-25T18:02:54.034Z,2.90
2023-05-25T18:05:22.021Z,2.77
2023-05-25T18:07:49.755Z,2.85
2023-05-25T18:10:17.625Z,3.07
2023-05-25T18:12:49.292Z,3.25
2023-05-25T18:15:17.158Z,2.80
2023-05-25T18:17:45.007Z,2.93
2023-05-25T18:20:13.242Z,3.20
2023-05-25T18:22:41.455Z,2.97
2023-05-25T18:25:17.824Z,3.67
2023-05-25T18:27:47.823Z,2.77
2023-05-25T18:30:16.400Z,3.10
2023-05-25T18:32:44.462Z,2.93
2023-05-25T18:35:12.253Z,3.10
2023-05-25T18:37:40.178Z,3.23
2023-05-25T18:40:09.249Z,2.93
2023-05-25T18:42:36.963Z,2.97
2023-05-25T18:45:07.268Z,2.30
2023-05-25T18:47:35.155Z,3.20
2023-05-25T18:50:03.199Z,3.27
2023-05-25T18:52:30.968Z,2.73
2023-05-25T18:54:58.736Z,3.23
2023-05-25T18:57:26.540Z,3.23
2023-05-25T18:59:54.394Z,2.70
2023-05-25T19:02:23.624Z,2.90
2023-05-25T19:04:51.484Z,3.27
2023-05-25T19:07:19.251Z,3.23
2023-05-25T19:09:48.137Z,2.60
2023-05-25T19:12:16.159Z,3.23
2023-05-25T19:14:43.993Z,2.90
2023-05-25T19:17:11.793Z,2.97
2023-05-25T19:19:41.033Z,2.97
2023-05-25T19:22:08.910Z,3.10
2023-05-25T19:24:36.961Z,3.03
2023-05-25T19:27:05.557Z,3.47
2023-05-25T19:29:33.313Z,2.87
2023-05-25T19:32:01.174Z,2.80
2023-05-25T19:34:29.079Z,3.10
2023-05-25T19:37:07.513Z,3.53
2023-05-25T19:39:38.660Z,3.10
2023-05-25T19:42:06.780Z,3.17
2023-05-25T19:44:34.607Z,2.67
2023-05-25T19:47:02.373Z,2.97
2023-05-25T19:49:30.128Z,2.80
2023-05-25T19:51:59.464Z,3.03
2023-05-25T19:54:27.348Z,3.20
2023-05-25T19:56:55.230Z,2.97
2023-05-25T19:59:27.715Z,3.23
2023-05-25T20:01:56.020Z,2.47
2023-05-25T20:04:24.230Z,2.50
2023-05-25T20:06:52.622Z,2.97
2023-05-25T20:09:29.770Z,3.03
2023-05-25T20:12:00.853Z,3.03
2023-05-25T20:14:30.212Z,2.70
2023-05-25T20:16:58.105Z,2.93
2023-05-25T20:19:26.082Z,2.67
2023-05-25T20:21:54.286Z,2.53
2023-05-25T20:24:23.458Z,3.10
2023-05-25T20:26:56.483Z,2.93
2023-05-25T20:29:24.695Z,3.13
2023-05-25T20:31:53.245Z,2.97
2023-05-25T20:34:21.178Z,3.03
2023-05-25T20:36:49.022Z,2.30
2023-05-25T20:39:17.038Z,2.60
2023-05-25T20:41:46.270Z,2.40
2023-05-25T20:44:14.101Z,2.27
2023-05-25T20:46:42.231Z,2.53
2023-05-25T20:49:10.055Z,2.87
2023-05-25T20:51:37.854Z,3.60
2023-05-25T20:54:05.986Z,2.73
2023-05-25T20:56:33.966Z,3.30
2023-05-25T20:59:03.084Z,3.03
2023-05-25T21:01:30.970Z,2.30
2023-05-25T21:03:59.123Z,3.23
2023-05-25T21:06:26.932Z,2.50
2023-05-25T21:08:55.090Z,2.77
2023-05-25T21:11:22.997Z,2.67
2023-05-25T21:13:50.851Z,2.83
2023-05-25T21:16:20.087Z,2.80
2023-05-25T21:18:47.866Z,3.30
2023-05-25T21:21:16.051Z,2.33
2023-05-25T21:23:43.942Z,2.63
2023-05-25T21:26:11.783Z,2.90
2023-05-25T21:28:39.565Z,2.80
2023-05-25T21:31:07.361Z,3.10
2023-05-25T21:33:37.687Z,2.83
2023-05-25T21:36:05.554Z,2.50
2023-05-25T21:38:33.383Z,3.10
2023-05-25T21:41:01.216Z,2.33
2023-05-25T21:43:29.017Z,3.37
2023-05-25T21:45:56.821Z,3.10
2023-05-25T21:48:24.925Z,2.93
2023-05-25T21:50:54.700Z,2.87
2023-05-25T21:53:22.571Z,2.87
2023-05-25T21:55:52.857Z,3.10
2023-05-25T21:58:20.793Z,3.17
2023-05-25T22:00:48.545Z,2.87
2023-05-25T22:03:16.539Z,2.80
2023-05-25T22:05:44.577Z,3.07
2023-05-25T22:08:13.941Z,2.80
2023-05-25T22:10:41.716Z,3.47
2023-05-25T22:13:09.509Z,2.80
2023-05-25T22:15:37.343Z,2.77
2023-05-25T22:18:05.884Z,2.60
2023-05-25T22:20:33.857Z,3.43
2023-05-25T22:23:01.664Z,2.77
2023-05-25T22:25:30.964Z,3.30
2023-05-25T22:27:58.731Z,3.23
2023-05-25T22:30:26.566Z,2.80
2023-05-25T22:32:54.327Z,2.93
2023-05-25T22:35:22.395Z,2.83
2023-05-25T22:37:50.303Z,2.70
2023-05-25T22:40:18.222Z,2.77
2023-05-25T22:42:50.268Z,2.90
2023-05-25T22:45:18.230Z,3.53
2023-05-25T22:47:46.013Z,3.07
2023-05-25T22:50:14.302Z,3.03
2023-05-25T22:52:42.749Z,3.13
2023-05-25T22:55:11.197Z,2.73
2023-05-25T22:57:39.272Z,3.00
2023-05-25T23:00:09.689Z,2.90
2023-05-25T23:02:37.611Z,2.97
2023-05-25T23:05:06.307Z,2.57
2023-05-25T23:07:34.165Z,3.00
2023-05-25T23:10:01.960Z,3.33
2023-05-25T23:12:29.812Z,2.90
2023-05-25T23:15:00.700Z,3.10
2023-05-25T23:17:30.427Z,2.63
2023-05-25T23:19:58.317Z,2.83
2023-05-25T23:22:26.208Z,2.90
2023-05-25T23:24:54.027Z,2.90
2023-05-25T23:27:21.880Z,2.70
2023-05-25T23:29:49.669Z,2.90
2023-05-25T23:32:17.388Z,2.37
2023-05-25T23:34:47.844Z,2.83
2023-05-25T23:37:15.684Z,2.70
2023-05-25T23:39:43.431Z,2.90
2023-05-25T23:42:15.266Z,3.10
2023-05-25T23:44:43.168Z,3.00
2023-05-25T23:47:10.963Z,2.60
2023-05-25T23:49:38.784Z,2.60
2023-05-25T23:52:08.390Z,2.90
2023-05-25T23:54:36.185Z,3.37
2023-05-25T23:57:04.003Z,2.70
2023-05-25T23:59:31.759Z,2.40
